createdAt,value
2017-10-17T00:01:07.821Z,13.00
2017-10-17T00:03:42.449Z,14.20
2017-10-17T00:06:16.713Z,14.40
2017-10-17T00:08:50.633Z,13.60
2017-10-17T00:11:24.578Z,12.73
2017-10-17T00:13:58.493Z,13.77
2017-10-17T00:16:32.386Z,13.47
2017-10-17T00:19:06.164Z,12.47
2017-10-17T00:21:39.978Z,13.10
2017-10-17T00:24:14.011Z,13.17
2017-10-17T00:26:47.950Z,13.23
2017-10-17T00:29:21.952Z,11.50
2017-10-17T00:31:55.859Z,11.47
2017-10-17T00:34:29.587Z,11.80
2017-10-17T00:37:04.246Z,13.67
2017-10-17T00:39:38.238Z,12.90
2017-10-17T00:42:12.304Z,10.80
2017-10-17T00:44:46.050Z,13.57
2017-10-17T00:47:19.803Z,11.17
2017-10-17T00:49:53.715Z,12.57
2017-10-17T00:52:27.655Z,11.50
2017-10-17T00:55:01.497Z,11.80
2017-10-17T00:57:35.379Z,11.40
2017-10-17T01:00:09.230Z,11.47
2017-10-17T01:02:43.211Z,10.60
2017-10-17T01:05:17.735Z,12.60
2017-10-17T01:07:51.865Z,11.97
2017-10-17T01:10:25.613Z,12.20
2017-10-17T01:12:59.745Z,11.50
2017-10-17T01:15:33.618Z,11.23
2017-10-17T01:18:07.467Z,11.50
2017-10-17T01:20:45.982Z,10.93
2017-10-17T01:23:23.700Z,11.63
2017-10-17T01:26:12.238Z,10.70
2017-10-17T01:28:46.007Z,11.33
2017-10-17T01:31:21.178Z,10.77
2017-10-17T01:33:54.914Z,10.20
2017-10-17T01:36:28.774Z,10.93
2017-10-17T01:39:03.375Z,9.40
2017-10-17T01:41:37.222Z,9.53
2017-10-17T01:44:14.938Z,10.00
2017-10-17T01:46:49.705Z,9.40
2017-10-17T01:49:35.238Z,9.10
2017-10-17T01:52:14.654Z,9.90
2017-10-17T01:55:05.395Z,8.83
2017-10-17T01:57:41.226Z,8.90
2017-10-17T02:00:15.071Z,11.57
2017-10-17T02:02:48.982Z,10.00
2017-10-17T02:05:22.782Z,10.30
2017-10-17T02:07:56.740Z,9.13
2017-10-17T02:10:30.630Z,8.10
2017-10-17T02:13:04.615Z,8.50
2017-10-17T02:15:38.650Z,8.33
2017-10-17T02:18:16.862Z,10.00
2017-10-17T02:20:51.041Z,9.30
2017-10-17T02:23:25.047Z,8.23
2017-10-17T02:26:03.542Z,8.87
2017-10-17T02:28:44.043Z,9.10
2017-10-17T02:31:20.570Z,7.57
2017-10-17T02:34:11.730Z,7.93
2017-10-17T02:36:46.363Z,7.23
2017-10-17T02:39:20.391Z,7.70
2017-10-17T02:41:54.235Z,8.50
2017-10-17T02:44:28.059Z,8.60
2017-10-17T02:47:01.917Z,8.00
2017-10-17T02:49:38.916Z,7.93
2017-10-17T02:52:22.296Z,8.30
2017-10-17T02:54:56.254Z,8.30
2017-10-17T02:57:30.203Z,7.50
2017-10-17T03:00:05.570Z,7.33
2017-10-17T03:02:52.414Z,7.30
2017-10-17T03:05:27.103Z,8.10
2017-10-17T03:08:04.818Z,8.20
2017-10-17T03:10:39.066Z,8.50
2017-10-17T03:13:15.675Z,6.90
2017-10-17T03:15:50.415Z,7.87
2017-10-17T03:18:24.230Z,7.20
2017-10-17T03:20:58.126Z,6.70
2017-10-17T03:23:31.884Z,6.93
2017-10-17T03:26:05.911Z,6.90
2017-10-17T03:28:56.471Z,6.17
2017-10-17T03:31:30.239Z,7.60
2017-10-17T03:34:21.704Z,6.63
2017-10-17T03:37:08.236Z,6.40
2017-10-17T03:39:45.694Z,8.07
2017-10-17T03:42:19.242Z,8.50
2017-10-17T03:44:53.797Z,7.60
2017-10-17T03:47:45.266Z,7.07
2017-10-17T03:50:21.535Z,7.57
2017-10-17T03:55:51.319Z,6.33
2017-10-17T03:58:28.898Z,6.53
2017-10-17T04:01:02.649Z,7.00
2017-10-17T04:03:43.014Z,6.97
2017-10-17T04:09:17.922Z,8.90
2017-10-17T04:11:51.739Z,19.70
2017-10-17T04:14:26.459Z,12.43
2017-10-17T04:17:26.554Z,8.30
2017-10-17T04:20:12.042Z,8.47
2017-10-17T04:22:49.764Z,8.70
2017-10-17T04:25:26.478Z,8.20
2017-10-17T04:28:04.092Z,7.13
2017-10-17T04:30:53.505Z,7.37
2017-10-17T04:33:27.476Z,7.40
2017-10-17T04:38:58.621Z,8.20
2017-10-17T04:41:53.639Z,8.40
2017-10-17T04:44:38.099Z,6.90
2017-10-17T04:47:27.731Z,7.30
2017-10-17T04:50:13.691Z,7.50
2017-10-17T04:55:47.770Z,7.50
2017-10-17T05:01:23.601Z,7.07
2017-10-17T05:07:13.451Z,8.20
2017-10-17T05:09:49.937Z,7.87
2017-10-17T05:12:33.750Z,7.73
2017-10-17T05:15:09.093Z,10.13
2017-10-17T05:18:07.094Z,9.37
2017-10-17T05:20:44.687Z,10.13
2017-10-17T05:23:36.500Z,9.93
2017-10-17T05:26:10.282Z,9.87
2017-10-17T05:28:57.023Z,11.30
2017-10-17T05:31:31.695Z,12.80
2017-10-17T05:34:13.445Z,13.40
2017-10-17T05:36:58.102Z,13.50
2017-10-17T05:39:32.842Z,14.93
2017-10-17T05:42:06.649Z,15.57
2017-10-17T05:44:57.440Z,14.03
2017-10-17T05:47:35.717Z,13.50
2017-10-17T05:53:18.674Z,13.10
2017-10-17T05:55:53.018Z,11.83
2017-10-17T05:58:27.443Z,12.73
2017-10-17T06:01:02.132Z,11.30
2017-10-17T06:03:36.816Z,11.30
2017-10-17T06:06:11.549Z,13.93
2017-10-17T06:08:46.098Z,11.80
2017-10-17T06:11:20.652Z,11.93
2017-10-17T06:13:55.176Z,12.43
2017-10-17T06:16:29.678Z,11.33
2017-10-17T06:19:04.250Z,11.37
2017-10-17T06:21:38.806Z,12.07
2017-10-17T06:24:14.267Z,9.33
2017-10-17T06:26:48.850Z,12.60
2017-10-17T06:29:23.499Z,12.07
2017-10-17T06:31:58.125Z,12.33
2017-10-17T06:34:32.582Z,11.60
2017-10-17T06:37:07.127Z,10.50
2017-10-17T06:39:42.335Z,10.80
2017-10-17T06:42:16.902Z,12.33
2017-10-17T06:44:51.433Z,11.40
2017-10-17T06:47:25.978Z,10.60
2017-10-17T06:50:00.498Z,10.70
2017-10-17T06:52:35.061Z,10.80
2017-10-17T06:55:09.814Z,12.03
2017-10-17T06:57:44.644Z,13.13
2017-10-17T07:00:18.590Z,11.60
2017-10-17T07:02:53.115Z,10.00
2017-10-17T07:05:27.650Z,10.67
2017-10-17T07:08:02.153Z,11.53
2017-10-17T07:10:36.747Z,10.37
2017-10-17T07:13:11.312Z,11.20
2017-10-17T07:15:45.770Z,11.27
2017-10-17T07:18:21.126Z,12.40
2017-10-17T07:20:55.619Z,11.93
2017-10-17T07:23:29.895Z,11.20
2017-10-17T07:26:04.462Z,12.50
2017-10-17T07:28:39.106Z,12.73
2017-10-17T07:31:13.721Z,13.67
2017-10-17T07:33:48.249Z,12.57
2017-10-17T07:36:22.735Z,13.63
2017-10-17T07:38:57.321Z,12.37
2017-10-17T07:41:31.898Z,15.13
2017-10-17T07:44:06.123Z,15.47
2017-10-17T07:46:40.601Z,12.83
2017-10-17T07:49:15.099Z,11.80
2017-10-17T07:51:49.530Z,11.03
2017-10-17T07:54:24.400Z,10.90
2017-10-17T07:56:59.113Z,12.10
2017-10-17T07:59:33.727Z,11.80
2017-10-17T08:02:08.294Z,9.50
2017-10-17T08:04:42.691Z,10.50
2017-10-17T08:07:16.394Z,9.80
2017-10-17T08:09:50.249Z,10.23
2017-10-17T08:12:24.606Z,10.10
2017-10-17T08:14:59.121Z,11.10
2017-10-17T08:17:33.806Z,9.10
2017-10-17T08:20:15.779Z,9.10
2017-10-17T08:22:49.934Z,8.70
2017-10-17T08:25:24.584Z,7.80
2017-10-17T08:27:59.164Z,9.53
2017-10-17T08:30:33.655Z,10.37
2017-10-17T08:33:08.230Z,10.00
2017-10-17T08:35:42.936Z,8.00
2017-10-17T08:38:17.075Z,8.97
2017-10-17T08:40:51.703Z,7.47
2017-10-17T08:43:26.221Z,12.83
2017-10-17T08:46:00.746Z,12.63
2017-10-17T08:48:34.990Z,8.60
2017-10-17T08:51:09.656Z,8.20
2017-10-17T08:53:44.458Z,11.53
2017-10-17T08:56:18.939Z,7.27
2017-10-17T08:58:53.583Z,8.40
2017-10-17T09:01:27.987Z,8.03
2017-10-17T09:04:02.660Z,7.40
2017-10-17T09:06:37.251Z,9.47
2017-10-17T09:09:11.714Z,10.20
2017-10-17T09:11:46.107Z,8.10
2017-10-17T09:14:20.420Z,7.77
2017-10-17T09:16:54.903Z,8.80
2017-10-17T09:19:29.585Z,10.30
2017-10-17T09:22:04.253Z,10.20
2017-10-17T09:24:38.690Z,8.67
2017-10-17T09:27:13.254Z,9.20
2017-10-17T09:29:47.894Z,7.77
2017-10-17T09:32:22.566Z,9.43
2017-10-17T09:34:57.134Z,7.93
2017-10-17T09:37:31.442Z,9.33
2017-10-17T09:40:14.214Z,6.90
2017-10-17T09:42:48.730Z,7.30
2017-10-17T09:45:23.270Z,7.57
2017-10-17T09:47:57.846Z,10.83
2017-10-17T09:50:32.480Z,9.80
2017-10-17T09:53:07.006Z,8.57
2017-10-17T09:55:41.531Z,8.97
2017-10-17T09:58:16.037Z,11.20
2017-10-17T10:00:50.623Z,7.90
2017-10-17T10:03:25.266Z,8.37
2017-10-17T10:05:59.707Z,7.67
2017-10-17T10:08:34.195Z,6.80
2017-10-17T10:11:08.712Z,6.80
2017-10-17T10:13:43.380Z,6.37
2017-10-17T10:16:17.940Z,7.97
2017-10-17T10:18:53.157Z,7.60
2017-10-17T10:21:27.808Z,6.70
2017-10-17T10:24:02.095Z,7.30
2017-10-17T10:26:37.058Z,7.28
2017-10-17T10:29:11.609Z,7.03
2017-10-17T10:31:45.943Z,7.20
2017-10-17T10:34:20.673Z,8.17
2017-10-17T10:36:55.166Z,6.87
2017-10-17T10:39:29.712Z,6.93
2017-10-17T10:42:04.102Z,9.03
2017-10-17T10:44:38.647Z,10.83
2017-10-17T10:47:13.226Z,7.80
2017-10-17T10:49:47.806Z,10.03
2017-10-17T10:52:22.334Z,6.90
2017-10-17T10:54:56.878Z,10.00
2017-10-17T10:57:31.503Z,10.90
2017-10-17T11:00:08.806Z,10.30
2017-10-17T11:02:44.023Z,9.83
2017-10-17T11:05:18.535Z,12.23
2017-10-17T11:07:53.083Z,12.27
2017-10-17T11:10:27.650Z,10.53
2017-10-17T11:13:02.344Z,10.40
2017-10-17T11:15:36.914Z,10.27
2017-10-17T11:18:11.344Z,8.57
2017-10-17T11:20:45.970Z,9.13
2017-10-17T11:23:20.614Z,9.87
2017-10-17T11:25:55.130Z,9.40
2017-10-17T11:28:29.703Z,10.03
2017-10-17T11:31:04.207Z,9.27
2017-10-17T11:33:38.463Z,10.80
2017-10-17T11:36:13.506Z,10.95
2017-10-17T11:38:48.434Z,8.02
2017-10-17T11:41:33.971Z,11.63
2017-10-17T11:44:11.534Z,10.20
2017-10-17T11:46:46.023Z,9.30
2017-10-17T11:49:20.407Z,14.70
2017-10-17T11:51:54.986Z,13.17
2017-10-17T11:54:29.454Z,10.37
2017-10-17T11:57:03.943Z,9.50
2017-10-17T11:59:38.377Z,11.40
2017-10-17T12:02:12.958Z,9.60
2017-10-17T12:04:47.602Z,9.10
2017-10-17T12:07:22.128Z,10.60
2017-10-17T12:09:56.749Z,9.60
2017-10-17T12:12:31.034Z,13.27
2017-10-17T12:15:07.940Z,11.43
2017-10-17T12:17:42.586Z,10.73
2017-10-17T12:20:17.205Z,9.90
2017-10-17T12:22:51.460Z,11.20
2017-10-17T12:25:26.099Z,10.67
2017-10-17T12:28:00.284Z,13.10
2017-10-17T12:30:34.802Z,14.70
2017-10-17T12:33:09.303Z,16.57
2017-10-17T12:35:43.838Z,14.00
2017-10-17T12:38:18.323Z,15.70
2017-10-17T12:40:52.851Z,14.93
2017-10-17T12:43:27.512Z,19.17
2017-10-17T12:46:01.894Z,19.20
2017-10-17T12:48:36.558Z,22.20
2017-10-17T12:51:11.133Z,21.30
2017-10-17T12:53:45.623Z,24.97
2017-10-17T12:56:20.126Z,23.40
2017-10-17T12:58:54.473Z,25.77
2017-10-17T13:01:29.097Z,26.87
2017-10-17T13:04:04.320Z,22.50
2017-10-17T13:06:39.002Z,23.27
2017-10-17T13:09:14.222Z,26.33
2017-10-17T13:11:48.615Z,25.03
2017-10-17T13:14:23.094Z,23.07
2017-10-17T13:16:57.321Z,23.47
2017-10-17T13:19:31.531Z,23.70
2017-10-17T13:22:06.111Z,22.37
2017-10-17T13:24:40.734Z,23.10
2017-10-17T13:27:15.332Z,21.90
2017-10-17T13:29:50.032Z,21.60
2017-10-17T13:32:24.570Z,20.00
2017-10-17T13:34:59.204Z,20.30
2017-10-17T13:37:33.799Z,22.03
2017-10-17T13:40:12.610Z,23.43
2017-10-17T13:42:47.830Z,20.47
2017-10-17T13:45:22.411Z,21.63
2017-10-17T13:47:56.943Z,19.77
2017-10-17T13:50:31.468Z,19.43
2017-10-17T13:53:05.962Z,16.27
2017-10-17T13:55:40.727Z,16.97
2017-10-17T13:58:14.982Z,16.27
2017-10-17T14:00:49.492Z,16.90
2017-10-17T14:03:23.919Z,16.47
2017-10-17T14:05:58.281Z,16.90
2017-10-17T14:08:33.496Z,16.23
2017-10-17T14:11:08.070Z,15.70
2017-10-17T14:13:42.350Z,16.27
2017-10-17T14:16:16.974Z,17.27
2017-10-17T14:18:51.435Z,17.80
2017-10-17T14:21:25.982Z,16.10
2017-10-17T14:24:00.299Z,15.50
2017-10-17T14:26:35.647Z,15.47
2017-10-17T14:29:10.250Z,16.03
2017-10-17T14:31:45.607Z,13.13
2017-10-17T14:34:20.245Z,14.80
2017-10-17T14:36:54.554Z,14.47
2017-10-17T14:39:29.185Z,14.83
2017-10-17T14:42:03.734Z,14.40
2017-10-17T14:44:38.363Z,13.33
2017-10-17T14:47:12.983Z,14.20
2017-10-17T14:49:47.562Z,14.13
2017-10-17T14:52:21.918Z,13.50
2017-10-17T14:54:56.579Z,12.90
2017-10-17T14:57:31.143Z,15.53
2017-10-17T15:00:08.395Z,15.80
2017-10-17T15:02:43.087Z,14.10
2017-10-17T15:05:18.019Z,18.67
2017-10-17T15:07:52.506Z,17.60
2017-10-17T15:10:27.075Z,18.03
2017-10-17T15:13:01.554Z,17.13
2017-10-17T15:15:36.366Z,18.03
2017-10-17T15:18:11.122Z,17.07
2017-10-17T15:20:45.690Z,18.37
2017-10-17T15:23:20.328Z,17.27
2017-10-17T15:25:54.959Z,17.80
2017-10-17T15:28:29.450Z,18.60
2017-10-17T15:31:03.993Z,17.27
2017-10-17T15:33:38.480Z,18.17
2017-10-17T15:36:13.059Z,18.87
2017-10-17T15:38:47.578Z,17.60
2017-10-17T15:41:22.082Z,17.27
2017-10-17T15:43:56.616Z,16.53
2017-10-17T15:46:31.253Z,18.53
2017-10-17T15:49:05.702Z,17.73
2017-10-17T15:51:40.326Z,16.33
2017-10-17T15:54:14.979Z,17.40
2017-10-17T15:56:49.444Z,16.27
2017-10-17T15:59:23.930Z,17.50
2017-10-17T16:01:58.555Z,17.53
2017-10-17T16:04:33.187Z,17.10
2017-10-17T16:07:08.517Z,16.13
2017-10-17T16:09:42.978Z,17.50
2017-10-17T16:12:17.554Z,17.60
2017-10-17T16:14:52.222Z,18.40
2017-10-17T16:17:27.039Z,17.00
2017-10-17T16:20:01.659Z,15.63
2017-10-17T16:22:36.292Z,17.50
2017-10-17T16:25:10.799Z,17.77
2017-10-17T16:27:46.242Z,18.37
2017-10-17T16:30:21.679Z,19.67
2017-10-17T16:32:56.172Z,17.97
2017-10-17T16:35:30.779Z,19.20
2017-10-17T16:38:04.803Z,18.37
2017-10-17T16:40:39.499Z,20.33
2017-10-17T16:43:13.963Z,18.97
2017-10-17T16:45:48.556Z,19.30
2017-10-17T16:48:23.290Z,19.93
2017-10-17T16:50:57.550Z,19.20
2017-10-17T16:53:32.021Z,21.37
2017-10-17T16:56:06.671Z,19.33
2017-10-17T16:58:41.305Z,19.90
2017-10-17T17:01:15.824Z,19.60
2017-10-17T17:03:50.366Z,21.23
2017-10-17T17:06:25.636Z,20.30
2017-10-17T17:09:00.230Z,21.60
2017-10-17T17:11:35.587Z,20.47
2017-10-17T17:14:10.103Z,21.03
2017-10-17T17:16:44.618Z,20.53
2017-10-17T17:19:19.127Z,21.73
2017-10-17T17:21:53.558Z,20.60
2017-10-17T17:24:27.902Z,20.50
2017-10-17T17:27:02.431Z,20.17
2017-10-17T17:29:36.774Z,20.37
2017-10-17T17:32:11.319Z,23.57
2017-10-17T17:34:45.902Z,22.70
2017-10-17T17:37:20.487Z,22.60
2017-10-17T17:39:55.003Z,24.50
2017-10-17T17:42:29.583Z,22.73
2017-10-17T17:45:13.048Z,22.10
2017-10-17T17:47:47.555Z,22.30
2017-10-17T17:50:22.129Z,24.33
2017-10-17T17:52:56.826Z,26.17
2017-10-17T17:55:31.435Z,25.33
2017-10-17T17:58:05.954Z,24.10
2017-10-17T18:00:39.754Z,24.23
2017-10-17T18:03:14.369Z,24.40
2017-10-17T18:05:49.003Z,26.20
2017-10-17T18:08:23.466Z,23.10
2017-10-17T18:10:57.858Z,24.60
2017-10-17T18:13:32.291Z,23.27
2017-10-17T18:16:06.598Z,22.90
2017-10-17T18:18:41.231Z,27.13
2017-10-17T18:21:15.758Z,26.20
2017-10-17T18:23:50.512Z,25.33
2017-10-17T18:26:24.757Z,27.00
2017-10-17T18:28:59.280Z,27.03
2017-10-17T18:31:33.934Z,29.23
2017-10-17T18:34:08.562Z,28.63
2017-10-17T18:36:43.162Z,25.93
2017-10-17T18:39:17.811Z,27.37
2017-10-17T18:41:52.398Z,23.83
2017-10-17T18:44:27.023Z,25.47
2017-10-17T18:47:01.622Z,24.00
2017-10-17T18:49:36.151Z,24.70
2017-10-17T18:52:10.789Z,22.77
2017-10-17T18:54:45.668Z,22.33
2017-10-17T18:57:20.080Z,21.97
2017-10-17T18:59:54.739Z,23.53
2017-10-17T19:02:29.059Z,24.20
2017-10-17T19:05:05.814Z,23.10
2017-10-17T19:07:40.315Z,22.73
2017-10-17T19:10:15.646Z,22.97
2017-10-17T19:12:50.143Z,22.63
2017-10-17T19:15:24.797Z,23.50
2017-10-17T19:17:59.395Z,20.17
2017-10-17T19:20:34.667Z,20.33
2017-10-17T19:23:09.302Z,21.60
2017-10-17T19:25:43.862Z,21.87
2017-10-17T19:28:18.468Z,20.67
2017-10-17T19:30:53.189Z,21.60
2017-10-17T19:33:27.864Z,22.27
2017-10-17T19:36:02.413Z,21.23
2017-10-17T19:38:37.008Z,21.00
2017-10-17T19:41:11.543Z,22.13
2017-10-17T19:43:46.043Z,21.50
2017-10-17T19:46:20.653Z,21.80
2017-10-17T19:48:55.187Z,23.23
2017-10-17T19:51:29.751Z,22.50
2017-10-17T19:54:04.273Z,21.53
2017-10-17T19:56:38.858Z,21.37
2017-10-17T19:59:13.375Z,23.10
2017-10-17T20:01:47.966Z,22.20
2017-10-17T20:04:22.490Z,21.83
2017-10-17T20:06:57.200Z,22.30
2017-10-17T20:09:31.287Z,22.90
2017-10-17T20:12:05.977Z,21.27
2017-10-17T20:14:40.450Z,23.87
2017-10-17T20:17:14.703Z,23.67
2017-10-17T20:19:49.302Z,24.10
2017-10-17T20:22:23.570Z,23.57
2017-10-17T20:24:58.095Z,23.00
2017-10-17T20:27:33.154Z,24.73
2017-10-17T20:30:11.606Z,22.63
2017-10-17T20:32:45.492Z,24.87
2017-10-17T20:35:20.447Z,25.27
2017-10-17T20:37:55.066Z,24.10
2017-10-17T20:40:29.274Z,25.40
2017-10-17T20:43:03.460Z,24.73
2017-10-17T20:45:37.961Z,25.13
2017-10-17T20:48:12.582Z,26.13
2017-10-17T20:50:47.214Z,28.07
2017-10-17T20:53:21.770Z,25.83
2017-10-17T20:55:56.368Z,27.13
2017-10-17T20:58:31.036Z,24.63
2017-10-17T21:01:06.319Z,26.30
2017-10-17T21:03:40.920Z,28.10
2017-10-17T21:06:15.474Z,29.43
2017-10-17T21:08:50.123Z,28.00
2017-10-17T21:11:24.659Z,24.83
2017-10-17T21:13:59.171Z,27.43
2017-10-17T21:16:33.776Z,26.57
2017-10-17T21:19:08.575Z,27.40
2017-10-17T21:21:43.202Z,25.50
2017-10-17T21:24:17.646Z,25.60
2017-10-17T21:26:52.166Z,26.57
2017-10-17T21:29:26.671Z,26.80
2017-10-17T21:32:01.254Z,27.67
2017-10-17T21:34:36.652Z,24.77
2017-10-17T21:37:11.115Z,27.83
2017-10-17T21:39:45.709Z,29.53
2017-10-17T21:42:20.338Z,29.83
2017-10-17T21:44:55.024Z,27.83
2017-10-17T21:47:29.486Z,27.53
2017-10-17T21:50:09.166Z,28.83
2017-10-17T21:52:43.663Z,29.47
2017-10-17T21:55:18.187Z,30.90
2017-10-17T21:57:52.814Z,29.00
2017-10-17T22:00:38.411Z,28.63
2017-10-17T22:03:13.078Z,25.70
2017-10-17T22:05:48.458Z,26.67
2017-10-17T22:08:23.049Z,28.40
2017-10-17T22:10:57.588Z,27.00
2017-10-17T22:13:32.154Z,26.63
2017-10-17T22:16:06.663Z,24.47
2017-10-17T22:18:41.322Z,24.20
2017-10-17T22:21:16.065Z,25.73
2017-10-17T22:23:50.299Z,26.70
2017-10-17T22:26:24.916Z,24.50
2017-10-17T22:28:59.519Z,27.00
2017-10-17T22:31:34.084Z,24.90
2017-10-17T22:34:08.746Z,27.13
2017-10-17T22:36:43.459Z,25.43
2017-10-17T22:39:17.918Z,27.17
2017-10-17T22:41:52.490Z,25.40
2017-10-17T22:44:27.038Z,27.07
2017-10-17T22:47:02.383Z,25.50
2017-10-17T22:49:36.908Z,25.80
2017-10-17T22:52:11.536Z,25.97
2017-10-17T22:54:46.227Z,26.50
2017-10-17T22:57:20.776Z,26.53
2017-10-17T22:59:55.259Z,26.87
2017-10-17T23:02:29.887Z,24.57
2017-10-17T23:05:06.353Z,25.30
2017-10-17T23:07:40.842Z,25.60
2017-10-17T23:10:15.171Z,25.53
2017-10-17T23:12:49.874Z,24.80
2017-10-17T23:15:24.482Z,26.47
2017-10-17T23:18:10.292Z,26.40
2017-10-17T23:20:44.955Z,25.40
2017-10-17T23:23:19.517Z,26.27
2017-10-17T23:25:54.091Z,26.00
2017-10-17T23:28:28.603Z,24.90
2017-10-17T23:31:04.024Z,24.10
2017-10-17T23:33:38.538Z,24.47
2017-10-17T23:36:13.196Z,25.13
2017-10-17T23:38:47.819Z,22.77
2017-10-17T23:41:22.446Z,24.87
2017-10-17T23:43:57.859Z,24.70
2017-10-17T23:46:32.309Z,26.23
2017-10-17T23:49:06.829Z,26.10
2017-10-17T23:51:41.040Z,25.93
2017-10-17T23:54:15.726Z,24.43
2017-10-17T23:56:50.356Z,25.30
2017-10-17T23:59:24.831Z,23.37
